Bolton, Connecticut
Current Conditions -  °F | °C
As of 6:53 PM on Saturday 25 Oct 2014 (Local Time) from KHFD Reporting Station
Broken Clouds Broken Clouds  
Wind Chill: 55°   Ceiling: 10000
Heat Index: 55°   Visibility: 10mi
Dew Point: 44°   Wind: 3mph
Humidity: 67%   Direction: 180°S
Pressure: 29.61"   Gusts: NA
Location:  41.77°N, 72.43°W
Report Text: KHFD 252253Z AUTO 18003KT 10SM SCT085 BKN100 13/07 A2961 RMK AO2 SLP026 T01280067
Loading
Personal Weather Stations






























Interactive Weather Map
Tropical Storm Tracking
New forecast layout! Learn more

10-Day Weather Forecast

Advertisements
Track Severe Weather on mobile